sensor_id;sensor_type;location;lat;lon;timestamp;pressure;altitude;pressure_sealevel;temperature;humidity
59825;BME280;45703;50.898;6.054;2024-02-23T00:00:48;97570.13;;;5.92;100.00
59825;BME280;45703;50.898;6.054;2024-02-23T00:03:14;97586.31;;;6.01;100.00
59825;BME280;45703;50.898;6.054;2024-02-23T00:05:39;97583.44;;;6.02;100.00
59825;BME280;45703;50.898;6.054;2024-02-23T00:08:06;97590.00;;;5.95;100.00
59825;BME280;45703;50.898;6.054;2024-02-23T00:10:31;97589.13;;;5.84;100.00
59825;BME280;45703;50.898;6.054;2024-02-23T00:12:57;97595.47;;;5.83;100.00
59825;BME280;45703;50.898;6.054;2024-02-23T00:15:22;97595.88;;;5.70;100.00
59825;BME280;45703;50.898;6.054;2024-02-23T00:17:49;97607.53;;;5.69;100.00
59825;BME280;45703;50.898;6.054;2024-02-23T00:20:15;97605.59;;;5.60;100.00
59825;BME280;45703;50.898;6.054;2024-02-23T00:22:40;97605.81;;;5.54;100.00
59825;BME280;45703;50.898;6.054;2024-02-23T00:25:06;97611.63;;;5.51;100.00
59825;BME280;45703;50.898;6.054;2024-02-23T00:27:31;97606.78;;;5.43;100.00
59825;BME280;45703;50.898;6.054;2024-02-23T00:29:56;97607.81;;;5.37;100.00
59825;BME280;45703;50.898;6.054;2024-02-23T00:32:24;97618.31;;;5.32;100.00
59825;BME280;45703;50.898;6.054;2024-02-23T00:34:50;97618.53;;;5.25;100.00
59825;BME280;45703;50.898;6.054;2024-02-23T00:37:15;97627.22;;;5.21;100.00
59825;BME280;45703;50.898;6.054;2024-02-23T00:39:40;97617.13;;;5.18;100.00
59825;BME280;45703;50.898;6.054;2024-02-23T00:42:06;97638.28;;;5.18;100.00
59825;BME280;45703;50.898;6.054;2024-02-23T00:44:32;97641.69;;;5.13;100.00
59825;BME280;45703;50.898;6.054;2024-02-23T00:46:58;97636.22;;;5.25;100.00
59825;BME280;45703;50.898;6.054;2024-02-23T00:49:26;97641.56;;;5.30;100.00
59825;BME280;45703;50.898;6.054;2024-02-23T00:51:52;97640.78;;;5.29;100.00
59825;BME280;45703;50.898;6.054;2024-02-23T00:54:17;97646.16;;;5.39;100.00
59825;BME280;45703;50.898;6.054;2024-02-23T00:56:42;97653.34;;;5.44;100.00
59825;BME280;45703;50.898;6.054;2024-02-23T00:59:08;97653.94;;;5.51;100.00
59825;BME280;45703;50.898;6.054;2024-02-23T01:01:33;97664.50;;;5.46;100.00
59825;BME280;45703;50.898;6.054;2024-02-23T01:03:59;97676.72;;;5.52;100.00
59825;BME280;45703;50.898;6.054;2024-02-23T01:06:24;97679.91;;;5.54;100.00
59825;BME280;45703;50.898;6.054;2024-02-23T01:08:50;97679.84;;;5.49;100.00
59825;BME280;45703;50.898;6.054;2024-02-23T01:11:15;97676.13;;;5.45;100.00
59825;BME280;45703;50.898;6.054;2024-02-23T01:13:41;97689.63;;;5.48;100.00
59825;BME280;45703;50.898;6.054;2024-02-23T01:16:25;97687.25;;;5.47;100.00
59825;BME280;45703;50.898;6.054;2024-02-23T01:18:51;97688.25;;;5.41;100.00
59825;BME280;45703;50.898;6.054;2024-02-23T01:21:16;97691.63;;;5.36;100.00
59825;BME280;45703;50.898;6.054;2024-02-23T01:23:41;97699.03;;;5.34;100.00
59825;BME280;45703;50.898;6.054;2024-02-23T01:26:07;97700.38;;;5.37;100.00
59825;BME280;45703;50.898;6.054;2024-02-23T01:28:32;97691.31;;;5.33;100.00
59825;BME280;45703;50.898;6.054;2024-02-23T01:30:58;97700.25;;;5.27;100.00
59825;BME280;45703;50.898;6.054;2024-02-23T01:33:23;97721.19;;;5.28;100.00
59825;BME280;45703;50.898;6.054;2024-02-23T01:35:49;97702.91;;;5.27;100.00
59825;BME280;45703;50.898;6.054;2024-02-23T01:38:15;97689.16;;;5.30;100.00
59825;BME280;45703;50.898;6.054;2024-02-23T01:40:45;97700.25;;;5.27;100.00
59825;BME280;45703;50.898;6.054;2024-02-23T01:43:11;97714.28;;;5.27;100.00
59825;BME280;45703;50.898;6.054;2024-02-23T01:45:36;97697.81;;;5.20;100.00
59825;BME280;45703;50.898;6.054;2024-02-23T01:48:01;97702.56;;;5.18;100.00
59825;BME280;45703;50.898;6.054;2024-02-23T01:50:27;97713.91;;;5.19;100.00
59825;BME280;45703;50.898;6.054;2024-02-23T01:52:57;97701.19;;;5.16;100.00
59825;BME280;45703;50.898;6.054;2024-02-23T01:55:23;97703.84;;;5.16;100.00
59825;BME280;45703;50.898;6.054;2024-02-23T01:57:49;97710.19;;;5.15;100.00
59825;BME280;45703;50.898;6.054;2024-02-23T02:00:16;97707.16;;;5.06;100.00
59825;BME280;45703;50.898;6.054;2024-02-23T02:02:43;97701.53;;;4.98;100.00
59825;BME280;45703;50.898;6.054;2024-02-23T02:05:09;97711.06;;;4.99;100.00
59825;BME280;45703;50.898;6.054;2024-02-23T02:07:35;97709.69;;;4.96;100.00
59825;BME280;45703;50.898;6.054;2024-02-23T02:10:00;97706.56;;;4.99;100.00
59825;BME280;45703;50.898;6.054;2024-02-23T02:12:27;97708.47;;;5.04;100.00
59825;BME280;45703;50.898;6.054;2024-02-23T02:14:52;97712.22;;;5.08;100.00
59825;BME280;45703;50.898;6.054;2024-02-23T02:17:18;97690.75;;;5.04;100.00
59825;BME280;45703;50.898;6.054;2024-02-23T02:19:47;97702.69;;;5.07;100.00
59825;BME280;45703;50.898;6.054;2024-02-23T02:22:13;97702.63;;;5.02;100.00
59825;BME280;45703;50.898;6.054;2024-02-23T02:24:38;97692.34;;;5.05;100.00
59825;BME280;45703;50.898;6.054;2024-02-23T02:27:06;97710.66;;;5.12;100.00
59825;BME280;45703;50.898;6.054;2024-02-23T02:29:32;97700.59;;;5.09;100.00
59825;BME280;45703;50.898;6.054;2024-02-23T02:31:57;97704.84;;;5.10;100.00
59825;BME280;45703;50.898;6.054;2024-02-23T02:34:22;97706.25;;;5.17;100.00
59825;BME280;45703;50.898;6.054;2024-02-23T02:36:48;97716.63;;;5.24;100.00
59825;BME280;45703;50.898;6.054;2024-02-23T02:39:13;97708.19;;;5.27;100.00
59825;BME280;45703;50.898;6.054;2024-02-23T02:41:38;97714.03;;;5.29;100.00
59825;BME280;45703;50.898;6.054;2024-02-23T02:44:04;97711.94;;;5.31;100.00
59825;BME280;45703;50.898;6.054;2024-02-23T02:46:29;97707.28;;;5.38;100.00
59825;BME280;45703;50.898;6.054;2024-02-23T02:48:54;97704.63;;;5.38;100.00
59825;BME280;45703;50.898;6.054;2024-02-23T02:51:20;97715.19;;;5.38;100.00
59825;BME280;45703;50.898;6.054;2024-02-23T02:53:46;97712.78;;;5.36;100.00
59825;BME280;45703;50.898;6.054;2024-02-23T02:56:11;97719.91;;;5.36;100.00
59825;BME280;45703;50.898;6.054;2024-02-23T02:58:37;97716.13;;;5.27;100.00
59825;BME280;45703;50.898;6.054;2024-02-23T03:01:02;97718.28;;;5.30;100.00
59825;BME280;45703;50.898;6.054;2024-02-23T03:03:28;97727.31;;;5.34;100.00
59825;BME280;45703;50.898;6.054;2024-02-23T03:05:53;97709.34;;;5.36;100.00
59825;BME280;45703;50.898;6.054;2024-02-23T03:08:18;97723.31;;;5.31;100.00
59825;BME280;45703;50.898;6.054;2024-02-23T03:10:44;97725.09;;;5.26;100.00
59825;BME280;45703;50.898;6.054;2024-02-23T03:13:09;97735.69;;;5.26;100.00
59825;BME280;45703;50.898;6.054;2024-02-23T03:15:34;97718.72;;;5.22;100.00
59825;BME280;45703;50.898;6.054;2024-02-23T03:18:00;97732.00;;;5.27;100.00
59825;BME280;45703;50.898;6.054;2024-02-23T03:20:26;97733.84;;;5.26;100.00
59825;BME280;45703;50.898;6.054;2024-02-23T03:22:52;97723.16;;;5.16;100.00
59825;BME280;45703;50.898;6.054;2024-02-23T03:25:18;97735.56;;;5.16;100.00
59825;BME280;45703;50.898;6.054;2024-02-23T03:27:43;97727.59;;;5.11;100.00
59825;BME280;45703;50.898;6.054;2024-02-23T03:30:09;97732.38;;;5.14;100.00
59825;BME280;45703;50.898;6.054;2024-02-23T03:32:35;97735.84;;;5.14;100.00
59825;BME280;45703;50.898;6.054;2024-02-23T03:35:05;97732.31;;;5.09;100.00
59825;BME280;45703;50.898;6.054;2024-02-23T03:37:31;97748.50;;;5.12;100.00
59825;BME280;45703;50.898;6.054;2024-02-23T03:39:56;97739.75;;;5.12;100.00
59825;BME280;45703;50.898;6.054;2024-02-23T03:42:22;97739.25;;;5.15;100.00
59825;BME280;45703;50.898;6.054;2024-02-23T03:44:47;97741.97;;;5.20;100.00
59825;BME280;45703;50.898;6.054;2024-02-23T03:47:12;97731.38;;;5.20;100.00
59825;BME280;45703;50.898;6.054;2024-02-23T03:49:38;97743.38;;;5.27;100.00
59825;BME280;45703;50.898;6.054;2024-02-23T03:52:04;97734.69;;;5.32;100.00
59825;BME280;45703;50.898;6.054;2024-02-23T03:54:30;97735.78;;;5.36;100.00
59825;BME280;45703;50.898;6.054;2024-02-23T03:56:56;97749.59;;;5.38;100.00
59825;BME280;45703;50.898;6.054;2024-02-23T03:59:21;97751.75;;;5.41;100.00
59825;BME280;45703;50.898;6.054;2024-02-23T04:01:47;97754.47;;;5.51;100.00
59825;BME280;45703;50.898;6.054;2024-02-23T04:04:12;97753.94;;;5.49;100.00
59825;BME280;45703;50.898;6.054;2024-02-23T04:06:37;97754.47;;;5.51;100.00
59825;BME280;45703;50.898;6.054;2024-02-23T04:09:03;97754.28;;;5.57;100.00
59825;BME280;45703;50.898;6.054;2024-02-23T04:11:32;97755.09;;;5.58;100.00
59825;BME280;45703;50.898;6.054;2024-02-23T04:13:57;97747.38;;;5.56;100.00
59825;BME280;45703;50.898;6.054;2024-02-23T04:16:23;97750.84;;;5.57;100.00
59825;BME280;45703;50.898;6.054;2024-02-23T04:18:50;97752.94;;;5.55;100.00
59825;BME280;45703;50.898;6.054;2024-02-23T04:21:15;97760.91;;;5.60;100.00
59825;BME280;45703;50.898;6.054;2024-02-23T04:23:41;97752.97;;;5.60;100.00
59825;BME280;45703;50.898;6.054;2024-02-23T04:26:06;97762.28;;;5.62;100.00
59825;BME280;45703;50.898;6.054;2024-02-23T04:28:31;97754.09;;;5.63;100.00
59825;BME280;45703;50.898;6.054;2024-02-23T04:30:59;97756.38;;;5.55;100.00
59825;BME280;45703;50.898;6.054;2024-02-23T04:33:24;97761.72;;;5.60;100.00
59825;BME280;45703;50.898;6.054;2024-02-23T04:35:50;97766.75;;;5.62;100.00
59825;BME280;45703;50.898;6.054;2024-02-23T04:38:15;97760.91;;;5.60;100.00
59825;BME280;45703;50.898;6.054;2024-02-23T04:40:41;97757.78;;;5.63;100.00
59825;BME280;45703;50.898;6.054;2024-02-23T04:43:06;97752.16;;;5.59;100.00
59825;BME280;45703;50.898;6.054;2024-02-23T04:45:31;97756.19;;;5.62;100.00
59825;BME280;45703;50.898;6.054;2024-02-23T04:47:57;97755.69;;;5.64;100.00
59825;BME280;45703;50.898;6.054;2024-02-23T04:50:22;97757.28;;;5.65;100.00
59825;BME280;45703;50.898;6.054;2024-02-23T04:52:48;97751.47;;;5.68;100.00
59825;BME280;45703;50.898;6.054;2024-02-23T04:55:15;97745.34;;;5.63;100.00
59825;BME280;45703;50.898;6.054;2024-02-23T04:57:40;97745.09;;;5.64;100.00
59825;BME280;45703;50.898;6.054;2024-02-23T05:00:06;97739.03;;;5.64;100.00
59825;BME280;45703;50.898;6.054;2024-02-23T05:02:33;97747.78;;;5.69;100.00
59825;BME280;45703;50.898;6.054;2024-02-23T05:05:02;97741.41;;;5.65;100.00
59825;BME280;45703;50.898;6.054;2024-02-23T05:07:30;97721.28;;;5.64;100.00
59825;BME280;45703;50.898;6.054;2024-02-23T05:09:56;97722.41;;;5.73;100.00
59825;BME280;45703;50.898;6.054;2024-02-23T05:12:22;97722.41;;;5.73;100.00
59825;BME280;45703;50.898;6.054;2024-02-23T05:14:47;97723.97;;;5.69;100.00
59825;BME280;45703;50.898;6.054;2024-02-23T05:17:12;97730.31;;;5.68;100.00
59825;BME280;45703;50.898;6.054;2024-02-23T05:19:38;97733.50;;;5.70;100.00
59825;BME280;45703;50.898;6.054;2024-02-23T05:22:03;97734.78;;;5.63;100.00
59825;BME280;45703;50.898;6.054;2024-02-23T05:24:29;97740.34;;;5.66;100.00
59825;BME280;45703;50.898;6.054;2024-02-23T05:26:54;97729.53;;;5.68;100.00
59825;BME280;45703;50.898;6.054;2024-02-23T05:29:19;97736.66;;;5.67;100.00
59825;BME280;45703;50.898;6.054;2024-02-23T05:31:51;97735.00;;;5.62;100.00
59825;BME280;45703;50.898;6.054;2024-02-23T05:34:17;97741.41;;;5.65;100.00
59825;BME280;45703;50.898;6.054;2024-02-23T05:36:44;97740.63;;;5.65;100.00
59825;BME280;45703;50.898;6.054;2024-02-23T05:39:11;97726.34;;;5.66;100.00
59825;BME280;45703;50.898;6.054;2024-02-23T05:41:38;97704.31;;;5.61;100.00
59825;BME280;45703;50.898;6.054;2024-02-23T05:44:06;97714.94;;;5.65;100.00
59825;BME280;45703;50.898;6.054;2024-02-23T05:46:33;97716.00;;;5.64;100.00
59825;BME280;45703;50.898;6.054;2024-02-23T05:48:58;97709.09;;;5.63;100.00
59825;BME280;45703;50.898;6.054;2024-02-23T05:51:24;97715.44;;;5.63;100.00
59825;BME280;45703;50.898;6.054;2024-02-23T05:53:49;97715.19;;;5.64;100.00
59825;BME280;45703;50.898;6.054;2024-02-23T05:56:15;97715.66;;;5.61;100.00
59825;BME280;45703;50.898;6.054;2024-02-23T05:58:40;97706.41;;;5.59;100.00
59825;BME280;45703;50.898;6.054;2024-02-23T06:01:06;97705.91;;;5.62;100.00
59825;BME280;45703;50.898;6.054;2024-02-23T06:03:32;97711.94;;;5.57;100.00
59825;BME280;45703;50.898;6.054;2024-02-23T06:05:58;97712.19;;;5.56;100.00
59825;BME280;45703;50.898;6.054;2024-02-23T06:08:23;97701.56;;;5.51;100.00
59825;BME280;45703;50.898;6.054;2024-02-23T06:10:48;97701.06;;;5.54;100.00
59825;BME280;45703;50.898;6.054;2024-02-23T06:13:14;97704.22;;;5.51;100.00
59825;BME280;45703;50.898;6.054;2024-02-23T06:15:39;97702.66;;;5.55;100.00
59825;BME280;45703;50.898;6.054;2024-02-23T06:18:05;97692.59;;;5.52;100.00
59825;BME280;45703;50.898;6.054;2024-02-23T06:20:31;97686.19;;;5.48;100.00
59825;BME280;45703;50.898;6.054;2024-02-23T06:22:57;97672.63;;;5.39;100.00
59825;BME280;45703;50.898;6.054;2024-02-23T06:25:22;97680.50;;;5.34;100.00
59825;BME280;45703;50.898;6.054;2024-02-23T06:27:48;97675.94;;;5.30;100.00
59825;BME280;45703;50.898;6.054;2024-02-23T06:30:14;97670.06;;;5.23;100.00
59825;BME280;45703;50.898;6.054;2024-02-23T06:32:39;97657.84;;;5.17;100.00
59825;BME280;45703;50.898;6.054;2024-02-23T06:35:05;97672.28;;;5.09;100.00
59825;BME280;45703;50.898;6.054;2024-02-23T06:37:32;97661.94;;;5.03;100.00
59825;BME280;45703;50.898;6.054;2024-02-23T06:39:58;97665.03;;;4.95;100.00
59825;BME280;45703;50.898;6.054;2024-02-23T06:42:23;97668.72;;;4.94;100.00
59825;BME280;45703;50.898;6.054;2024-02-23T06:44:49;97664.53;;;4.98;100.00
59825;BME280;45703;50.898;6.054;2024-02-23T06:47:15;97661.88;;;4.98;100.00
59825;BME280;45703;50.898;6.054;2024-02-23T06:49:44;97673.00;;;5.00;100.00
59825;BME280;45703;50.898;6.054;2024-02-23T06:52:10;97674.59;;;5.01;100.00
59825;BME280;45703;50.898;6.054;2024-02-23T06:54:36;97666.41;;;5.02;100.00
59825;BME280;45703;50.898;6.054;2024-02-23T06:57:01;97667.94;;;4.98;100.00
59825;BME280;45703;50.898;6.054;2024-02-23T06:59:27;97666.63;;;4.96;100.00
59825;BME280;45703;50.898;6.054;2024-02-23T07:01:52;97689.66;;;5.00;100.00
59825;BME280;45703;50.898;6.054;2024-02-23T07:04:18;97682.53;;;5.01;100.00
59825;BME280;45703;50.898;6.054;2024-02-23T07:06:44;97674.59;;;5.01;100.00
59825;BME280;45703;50.898;6.054;2024-02-23T07:09:09;97674.59;;;5.01;100.00
59825;BME280;45703;50.898;6.054;2024-02-23T07:11:39;97675.38;;;5.01;100.00
59825;BME280;45703;50.898;6.054;2024-02-23T07:14:06;97669.38;;;5.06;100.00
59825;BME280;45703;50.898;6.054;2024-02-23T07:16:32;97684.19;;;5.07;100.00
59825;BME280;45703;50.898;6.054;2024-02-23T07:18:57;97687.38;;;5.09;100.00
59825;BME280;45703;50.898;6.054;2024-02-23T07:21:23;97684.78;;;5.14;100.00
59825;BME280;45703;50.898;6.054;2024-02-23T07:23:48;97665.13;;;5.05;100.00
59825;BME280;45703;50.898;6.054;2024-02-23T07:26:13;97694.88;;;5.17;100.00
59825;BME280;45703;50.898;6.054;2024-02-23T07:28:39;97694.38;;;5.20;100.00
59825;BME280;45703;50.898;6.054;2024-02-23T07:31:04;97693.69;;;5.29;100.00
59825;BME280;45703;50.898;6.054;2024-02-23T07:33:29;97697.66;;;5.32;100.00
59825;BME280;45703;50.898;6.054;2024-02-23T07:35:55;97689.50;;;5.33;100.00
59825;BME280;45703;50.898;6.054;2024-02-23T07:38:20;97681.28;;;5.35;100.00
59825;BME280;45703;50.898;6.054;2024-02-23T07:40:46;97698.56;;;5.42;100.00
59825;BME280;45703;50.898;6.054;2024-02-23T07:43:11;97679.25;;;5.42;100.00
59825;BME280;45703;50.898;6.054;2024-02-23T07:45:37;97675.53;;;5.38;100.00
59825;BME280;45703;50.898;6.054;2024-02-23T07:48:03;97693.88;;;5.49;100.00
59825;BME280;45703;50.898;6.054;2024-02-23T07:50:29;97687.78;;;5.49;100.00
59825;BME280;45703;50.898;6.054;2024-02-23T07:52:54;97701.06;;;5.54;100.00
59825;BME280;45703;50.898;6.054;2024-02-23T07:55:20;97691.84;;;5.61;100.00
59825;BME280;45703;50.898;6.054;2024-02-23T07:57:45;97698.56;;;5.68;100.00
59825;BME280;45703;50.898;6.054;2024-02-23T08:00:11;97707.16;;;5.80;100.00
59825;BME280;45703;50.898;6.054;2024-02-23T08:02:37;97714.16;;;5.91;100.00
59825;BME280;45703;50.898;6.054;2024-02-23T08:05:02;97699.63;;;5.99;100.00
59825;BME280;45703;50.898;6.054;2024-02-23T08:07:28;97712.66;;;6.05;100.00
59825;BME280;45703;50.898;6.054;2024-02-23T08:09:56;97702.09;;;6.10;100.00
59825;BME280;45703;50.898;6.054;2024-02-23T08:12:21;97712.75;;;6.15;100.00
59825;BME280;45703;50.898;6.054;2024-02-23T08:14:46;97716.75;;;6.18;100.00
59825;BME280;45703;50.898;6.054;2024-02-23T08:17:14;97726.06;;;6.25;100.00
59825;BME280;45703;50.898;6.054;2024-02-23T08:19:39;97731.41;;;6.35;100.00
59825;BME280;45703;50.898;6.054;2024-02-23T08:22:04;97724.09;;;6.47;100.00
59825;BME280;45703;50.898;6.054;2024-02-23T08:24:30;97728.38;;;6.53;100.00
59825;BME280;45703;50.898;6.054;2024-02-23T08:26:56;97733.72;;;6.63;100.00
59825;BME280;45703;50.898;6.054;2024-02-23T08:29:22;97719.72;;;6.68;100.00
59825;BME280;45703;50.898;6.054;2024-02-23T08:31:48;97724.81;;;6.84;100.00
59825;BME280;45703;50.898;6.054;2024-02-23T08:34:13;97737.59;;;6.92;100.00
59825;BME280;45703;50.898;6.054;2024-02-23T08:36:39;97710.59;;;7.05;100.00
59825;BME280;45703;50.898;6.054;2024-02-23T08:39:04;97716.50;;;7.22;100.00
59825;BME280;45703;50.898;6.054;2024-02-23T08:41:29;97717.03;;;7.29;100.00
59825;BME280;45703;50.898;6.054;2024-02-23T08:43:55;97700.34;;;7.28;100.00
59825;BME280;45703;50.898;6.054;2024-02-23T08:46:21;97718.63;;;7.30;100.00
59825;BME280;45703;50.898;6.054;2024-02-23T08:48:47;97717.31;;;7.32;100.00
59825;BME280;45703;50.898;6.054;2024-02-23T08:51:12;97708.06;;;7.45;100.00
59825;BME280;45703;50.898;6.054;2024-02-23T08:53:37;97718.19;;;7.58;100.00
59825;BME280;45703;50.898;6.054;2024-02-23T08:56:03;97714.22;;;7.70;100.00
59825;BME280;45703;50.898;6.054;2024-02-23T08:58:29;97705.72;;;7.88;100.00
59825;BME280;45703;50.898;6.054;2024-02-23T09:00:55;97706.53;;;7.99;100.00
59825;BME280;45703;50.898;6.054;2024-02-23T09:03:20;97706.53;;;7.99;100.00
59825;BME280;45703;50.898;6.054;2024-02-23T09:05:46;97717.16;;;8.09;100.00
59825;BME280;45703;50.898;6.054;2024-02-23T09:08:13;97728.88;;;8.23;100.00
59825;BME280;45703;50.898;6.054;2024-02-23T09:10:38;97722.22;;;8.35;100.00
59825;BME280;45703;50.898;6.054;2024-02-23T09:13:04;97717.69;;;8.56;100.00
59825;BME280;45703;50.898;6.054;2024-02-23T09:15:29;97722.47;;;8.58;100.00
59825;BME280;45703;50.898;6.054;2024-02-23T09:17:55;97726.44;;;8.56;100.00
59825;BME280;45703;50.898;6.054;2024-02-23T09:20:20;97720.03;;;8.62;100.00
59825;BME280;45703;50.898;6.054;2024-02-23T09:22:45;97706.47;;;8.68;100.00
59825;BME280;45703;50.898;6.054;2024-02-23T09:25:11;97716.56;;;8.71;100.00
59825;BME280;45703;50.898;6.054;2024-02-23T09:27:36;97715.78;;;8.66;100.00
59825;BME280;45703;50.898;6.054;2024-02-23T09:30:17;97712.88;;;8.62;100.00
59825;BME280;45703;50.898;6.054;2024-02-23T09:32:43;97703.34;;;8.47;100.00
59825;BME280;45703;50.898;6.054;2024-02-23T09:35:10;97705.19;;;8.51;100.00
59825;BME280;45703;50.898;6.054;2024-02-23T09:37:35;97711.84;;;8.54;100.00
59825;BME280;45703;50.898;6.054;2024-02-23T09:40:00;97719.25;;;8.61;100.00
59825;BME280;45703;50.898;6.054;2024-02-23T09:42:28;97722.44;;;8.68;100.00
59825;BME280;45703;50.898;6.054;2024-02-23T09:44:57;97725.09;;;8.68;100.00
59825;BME280;45703;50.898;6.054;2024-02-23T09:47:27;97735.19;;;8.76;100.00
59825;BME280;45703;50.898;6.054;2024-02-23T09:49:54;97734.13;;;8.67;100.00
59825;BME280;45703;50.898;6.054;2024-02-23T09:52:20;97735.19;;;8.71;100.00
59825;BME280;45703;50.898;6.054;2024-02-23T09:54:46;97727.72;;;8.83;100.00
59825;BME280;45703;50.898;6.054;2024-02-23T09:57:11;97748.97;;;8.98;100.00
59825;BME280;45703;50.898;6.054;2024-02-23T09:59:37;97737.75;;;9.11;100.00
59825;BME280;45703;50.898;6.054;2024-02-23T10:02:07;97719.59;;;9.18;100.00
59825;BME280;45703;50.898;6.054;2024-02-23T10:04:34;97747.84;;;9.14;100.00
59825;BME280;45703;50.898;6.054;2024-02-23T10:07:00;97749.47;;;9.05;100.00
59825;BME280;45703;50.898;6.054;2024-02-23T10:09:25;97740.97;;;9.03;100.00
59825;BME280;45703;50.898;6.054;2024-02-23T10:11:54;97767.06;;;8.96;100.00
59825;BME280;45703;50.898;6.054;2024-02-23T10:14:20;97751.09;;;8.86;100.00
59825;BME280;45703;50.898;6.054;2024-02-23T10:16:46;97756.94;;;8.88;100.00
59825;BME280;45703;50.898;6.054;2024-02-23T10:19:11;97742.84;;;8.93;100.00
59825;BME280;45703;50.898;6.054;2024-02-23T10:21:37;97763.59;;;8.91;100.00
59825;BME280;45703;50.898;6.054;2024-02-23T10:24:02;97767.06;;;8.86;100.00
59825;BME280;45703;50.898;6.054;2024-02-23T10:26:27;97767.31;;;9.00;100.00
59825;BME280;45703;50.898;6.054;2024-02-23T10:28:53;97777.41;;;9.03;100.00
59825;BME280;45703;50.898;6.054;2024-02-23T10:31:18;97770.44;;;9.12;100.00
59825;BME280;45703;50.898;6.054;2024-02-23T10:33:44;97767.28;;;9.10;100.00
59825;BME280;45703;50.898;6.054;2024-02-23T10:36:11;97774.72;;;9.13;100.00
59825;BME280;45703;50.898;6.054;2024-02-23T10:38:42;97760.84;;;9.16;100.00
59825;BME280;45703;50.898;6.054;2024-02-23T10:41:12;97787.47;;;9.21;100.00
59825;BME280;45703;50.898;6.054;2024-02-23T10:43:48;97785.63;;;9.11;100.00
59825;BME280;45703;50.898;6.054;2024-02-23T10:46:14;97808.22;;;9.14;100.00
59825;BME280;45703;50.898;6.054;2024-02-23T10:48:44;97799.44;;;9.18;100.00
59825;BME280;45703;50.898;6.054;2024-02-23T10:51:12;97804.22;;;9.26;100.00
59825;BME280;45703;50.898;6.054;2024-02-23T10:53:42;97800.53;;;9.17;100.00
59825;BME280;45703;50.898;6.054;2024-02-23T10:56:10;97803.16;;;9.22;100.00
59825;BME280;45703;50.898;6.054;2024-02-23T10:58:35;97805.31;;;9.20;100.00
59825;BME280;45703;50.898;6.054;2024-02-23T11:01:02;97801.59;;;9.11;100.00
59825;BME280;45703;50.898;6.054;2024-02-23T11:03:30;97801.63;;;9.01;100.00
59825;BME280;45703;50.898;6.054;2024-02-23T11:05:56;97807.50;;;8.98;100.00
59825;BME280;45703;50.898;6.054;2024-02-23T11:08:22;97815.50;;;8.93;100.00
59825;BME280;45703;50.898;6.054;2024-02-23T11:10:50;97833.06;;;8.94;100.00
59825;BME280;45703;50.898;6.054;2024-02-23T11:13:30;97802.72;;;8.95;100.00
59825;BME280;45703;50.898;6.054;2024-02-23T11:16:01;97803.78;;;8.99;100.00
59825;BME280;45703;50.898;6.054;2024-02-23T11:18:28;97800.78;;;9.11;100.00
59825;BME280;45703;50.898;6.054;2024-02-23T11:20:54;97806.38;;;9.14;100.00
59825;BME280;45703;50.898;6.054;2024-02-23T11:23:21;97782.69;;;9.23;100.00
59825;BME280;45703;50.898;6.054;2024-02-23T11:26:05;97799.97;;;9.20;100.00
59825;BME280;45703;50.898;6.054;2024-02-23T11:28:59;97803.75;;;9.04;100.00
59825;BME280;45703;50.898;6.054;2024-02-23T11:31:28;97795.75;;;9.14;100.00
59825;BME280;45703;50.898;6.054;2024-02-23T11:33:56;97794.94;;;9.14;100.00
59825;BME280;45703;50.898;6.054;2024-02-23T11:36:28;97798.88;;;9.26;100.00
59825;BME280;45703;50.898;6.054;2024-02-23T11:38:56;97805.81;;;9.22;100.00
59825;BME280;45703;50.898;6.054;2024-02-23T11:41:23;97818.06;;;9.28;100.00
59825;BME280;45703;50.898;6.054;2024-02-23T11:43:50;97801.53;;;9.31;100.00
59825;BME280;45703;50.898;6.054;2024-02-23T11:46:16;97811.34;;;9.41;100.00
59825;BME280;45703;50.898;6.054;2024-02-23T11:48:42;97805.19;;;9.55;100.00
59825;BME280;45703;50.898;6.054;2024-02-23T11:51:09;97807.78;;;9.65;100.00
59825;BME280;45703;50.898;6.054;2024-02-23T11:53:36;97800.81;;;9.74;100.00
59825;BME280;45703;50.898;6.054;2024-02-23T11:56:04;97809.63;;;9.75;100.00
59825;BME280;45703;50.898;6.054;2024-02-23T11:58:30;97797.06;;;9.75;100.00
59825;BME280;45703;50.898;6.054;2024-02-23T12:00:55;97795.50;;;9.74;100.00
59825;BME280;45703;50.898;6.054;2024-02-23T12:03:21;97800.03;;;9.69;100.00
59825;BME280;45703;50.898;6.054;2024-02-23T12:05:49;97792.03;;;9.69;100.00
59825;BME280;45703;50.898;6.054;2024-02-23T12:08:15;97784.06;;;9.64;100.00
59825;BME280;45703;50.898;6.054;2024-02-23T12:10:41;97794.22;;;9.62;100.00
59825;BME280;45703;50.898;6.054;2024-02-23T12:13:06;97795.81;;;9.63;100.00
59825;BME280;45703;50.898;6.054;2024-02-23T12:15:33;97782.81;;;9.56;100.00
59825;BME280;45703;50.898;6.054;2024-02-23T12:17:58;97794.47;;;9.65;100.00
59825;BME280;45703;50.898;6.054;2024-02-23T12:20:25;97803.03;;;9.57;100.00
59825;BME280;45703;50.898;6.054;2024-02-23T12:22:50;97803.00;;;9.62;100.00
59825;BME280;45703;50.898;6.054;2024-02-23T12:25:19;97796.03;;;9.71;100.00
59825;BME280;45703;50.898;6.054;2024-02-23T12:27:44;97795.78;;;9.68;100.00
59825;BME280;45703;50.898;6.054;2024-02-23T12:30:14;97790.72;;;9.71;100.00
59825;BME280;45703;50.898;6.054;2024-02-23T12:32:40;97786.91;;;9.82;100.00
59825;BME280;45703;50.898;6.054;2024-02-23T12:35:06;97792.56;;;9.76;100.00
59825;BME280;45703;50.898;6.054;2024-02-23T12:37:34;97780.69;;;9.53;100.00
59825;BME280;45703;50.898;6.054;2024-02-23T12:40:00;97785.97;;;9.63;100.00
59825;BME280;45703;50.898;6.054;2024-02-23T12:42:26;97786.72;;;9.69;100.00
59825;BME280;45703;50.898;6.054;2024-02-23T12:44:51;97797.38;;;9.74;100.00
59825;BME280;45703;50.898;6.054;2024-02-23T12:47:16;97787.47;;;9.79;100.00
59825;BME280;45703;50.898;6.054;2024-02-23T12:49:42;97788.25;;;9.85;100.00
59825;BME280;45703;50.898;6.054;2024-02-23T12:52:07;97787.72;;;9.83;100.00
59825;BME280;45703;50.898;6.054;2024-02-23T12:54:32;97781.38;;;9.74;100.00